Time;durP1;ratioP1;P1;durP2;ratioP2;P2;SDS_P1;SDS_P2;PMS_P1;PMS_P2;Temp;Humidity;BMP_temperature;BMP_pressure;BME280_temperature;BME280_humidity;BME280_pressure;Samples;Min_cycle;Max_cycle;Signal;HPM_P1;HPM_P2
2023/07/15 00:00:04;;;;;;;;;;;25.20;92.00;25.30;99079.00;;;;346075;28;82549;-93
2023/07/15 00:00:17;;;;;;;;;;;25.20;92.00;25.20;99080.00;;;;345383;28;95986;-92
2023/07/15 00:00:31;;;;;;;;;;;25.20;92.00;25.10;99079.00;;;;348912;27;83432;-92
2023/07/15 00:00:43;;;;;;;;;;;25.20;92.20;25.10;99084.00;;;;348016;27;96180;-93
2023/07/15 00:01:00;;;;;;;;;;;25.20;92.20;25.20;99076.00;;;;347736;28;83234;-93
2023/07/15 00:01:27;;;;;;;;;;;25.20;92.10;25.20;99078.00;;;;345408;28;96940;-93
2023/07/15 00:01:39;;;;;;;;;;;25.20;92.00;25.20;99085.00;;;;346174;28;83525;-92
2023/07/15 00:01:51;;;;;;;;;;;25.20;92.00;25.20;99082.00;;;;349633;27;96743;-94
2023/07/15 00:02:04;;;;;;;;;;;25.20;92.20;25.20;99071.00;;;;347586;28;83452;-92
2023/07/15 00:02:16;;;;;;;;;;;25.20;92.20;25.30;99075.00;;;;345446;28;96755;-93
2023/07/15 00:02:28;;;;;;;;;;;25.20;92.20;25.30;99077.00;;;;346247;28;82629;-92
2023/07/15 00:02:43;;;;;;;;;;;25.20;92.20;25.30;99076.00;;;;345419;28;96854;-93
2023/07/15 00:02:56;;;;;;;;;;;25.20;92.20;25.30;99072.00;;;;346257;28;83410;-93
2023/07/15 00:03:08;;;;;;;;;;;25.30;92.10;25.20;99074.00;;;;345349;28;97914;-92
2023/07/15 00:03:20;;;;;;;;;;;25.30;92.20;25.20;99070.00;;;;346204;28;83463;-93
2023/07/15 00:03:33;;;;;;;;;;;25.30;92.20;25.20;99080.00;;;;346800;28;96138;-92
2023/07/15 00:03:46;;;;;;;;;;;25.20;92.10;25.20;99080.00;;;;347703;28;83442;-93
2023/07/15 00:03:58;;;;;;;;;;;25.30;92.20;25.10;99075.00;;;;345363;28;96312;-92
2023/07/15 00:04:11;;;;;;;;;;;25.20;92.20;25.20;99072.00;;;;349132;27;83428;-92
2023/07/15 00:04:23;;;;;;;;;;;25.30;92.30;25.20;99071.00;;;;346982;28;96937;-92
2023/07/15 00:04:36;;;;;;;;;;;25.30;92.30;25.30;99069.00;;;;347564;28;82486;-93
2023/07/15 00:04:48;;;;;;;;;;;25.30;92.10;25.40;99075.00;;;;345456;28;95869;-92
2023/07/15 00:05:01;;;;;;;;;;;25.30;92.10;25.30;99074.00;;;;346318;28;82458;-93
2023/07/15 00:05:27;;;;;;;;;;;25.20;92.20;25.20;99078.00;;;;346751;28;96819;-92
2023/07/15 00:05:39;;;;;;;;;;;25.30;92.30;25.30;99074.00;;;;349031;27;82437;-92
2023/07/15 00:05:51;;;;;;;;;;;25.30;92.30;25.30;99068.00;;;;346764;28;96109;-94
2023/07/15 00:06:05;;;;;;;;;;;25.30;92.40;25.30;99073.00;;;;346162;28;82519;-93
2023/07/15 00:06:17;;;;;;;;;;;25.30;92.50;25.30;99075.00;;;;346733;28;96906;-93
2023/07/15 00:06:29;;;;;;;;;;;25.30;92.60;25.30;99077.00;;;;345030;28;83290;-92
2023/07/15 00:06:41;;;;;;;;;;;25.30;92.50;25.30;99060.00;;;;345369;28;95863;-93
2023/07/15 00:06:53;;;;;;;;;;;25.30;92.60;25.30;99068.00;;;;346196;28;83154;-93
2023/07/15 00:07:05;;;;;;;;;;;25.30;92.50;25.30;99068.00;;;;346834;28;96517;-93
2023/07/15 00:07:17;;;;;;;;;;;25.30;92.60;25.40;99067.00;;;;348947;27;83389;-93
2023/07/15 00:07:29;;;;;;;;;;;25.30;92.50;25.40;99064.00;;;;346758;28;96505;-93
2023/07/15 00:07:41;;;;;;;;;;;25.30;92.50;25.30;99068.00;;;;347592;28;83360;-93
2023/07/15 00:07:53;;;;;;;;;;;25.40;92.70;25.30;99066.00;;;;348177;27;95314;-92
2023/07/15 00:08:05;;;;;;;;;;;25.30;92.60;25.30;99071.00;;;;346169;28;83463;-93
2023/07/15 00:08:17;;;;;;;;;;;25.30;92.70;25.30;99071.00;;;;346768;28;96305;-93
2023/07/15 00:08:31;;;;;;;;;;;25.30;92.70;25.20;99069.00;;;;346229;28;82463;-92
2023/07/15 00:08:44;;;;;;;;;;;25.30;92.70;25.20;99070.00;;;;343921;28;95515;-93
2023/07/15 00:08:56;;;;;;;;;;;25.30;92.70;25.40;99068.00;;;;344901;28;83462;-93
2023/07/15 00:09:09;;;;;;;;;;;25.30;92.60;25.40;99073.00;;;;345505;28;96000;-93
2023/07/15 00:09:26;;;;;;;;;;;25.30;92.60;25.30;99066.00;;;;346143;28;83465;-93
2023/07/15 00:09:38;;;;;;;;;;;25.30;92.80;25.30;99066.00;;;;345356;28;97476;-93
2023/07/15 00:09:49;;;;;;;;;;;25.30;92.90;25.30;99062.00;;;;344869;28;82640;-92
2023/07/15 00:10:02;;;;;;;;;;;25.30;92.90;25.30;99062.00;;;;348044;27;95296;-92
2023/07/15 00:10:15;;;;;;;;;;;25.30;92.80;25.30;99060.00;;;;346266;28;83321;-93
2023/07/15 00:10:27;;;;;;;;;;;25.30;92.80;25.30;99063.00;;;;345637;28;95359;-92
2023/07/15 00:10:41;;;;;;;;;;;25.30;92.80;25.30;99058.00;;;;347572;28;83365;-93
2023/07/15 00:10:53;;;;;;;;;;;25.30;92.90;25.30;99055.00;;;;345425;28;96586;-93
2023/07/15 00:11:05;;;;;;;;;;;25.30;93.00;25.30;99060.00;;;;347754;28;83330;-93
2023/07/15 00:11:33;;;;;;;;;;;25.30;93.00;25.20;99056.00;;;;346823;28;95485;-93
2023/07/15 00:11:45;;;;;;;;;;;25.30;92.90;25.30;99055.00;;;;346303;28;83425;-93
2023/07/15 00:11:58;;;;;;;;;;;25.40;93.10;25.30;99056.00;;;;345332;28;96317;-92
2023/07/15 00:12:10;;;;;;;;;;;25.30;93.10;25.30;99054.00;;;;347803;28;83410;-92
2023/07/15 00:12:21;;;;;;;;;;;25.30;93.10;25.40;99054.00;;;;344155;28;96607;-93
2023/07/15 00:12:33;;;;;;;;;;;25.40;93.00;25.30;99056.00;;;;347652;28;83326;-92
2023/07/15 00:12:45;;;;;;;;;;;25.30;93.10;25.40;99049.00;;;;348204;27;94357;-93
2023/07/15 00:12:57;;;;;;;;;;;25.40;93.20;25.40;99053.00;;;;342428;28;83536;-93
2023/07/15 00:13:13;;;;;;;;;;;25.30;93.10;25.40;99060.00;;;;345442;28;96747;-93
2023/07/15 00:13:24;;;;;;;;;;;25.40;93.00;25.30;99052.00;;;;339369;28;82532;-93
2023/07/15 00:13:36;;;;;;;;;;;25.40;93.20;25.30;99049.00;;;;339934;28;94324;-93
2023/07/15 00:13:48;;;;;;;;;;;25.30;93.20;25.30;99049.00;;;;341926;27;82605;-93
2023/07/15 00:14:00;;;;;;;;;;;25.30;93.20;25.40;99056.00;;;;342434;28;97738;-93
2023/07/15 00:14:17;;;;;;;;;;;25.40;93.00;25.40;99055.00;;;;341982;28;82496;-94
2023/07/15 00:14:30;;;;;;;;;;;25.40;93.00;25.40;99054.00;;;;342597;28;95683;-93
2023/07/15 00:14:41;;;;;;;;;;;25.40;93.20;25.40;99059.00;;;;341937;28;82485;-92
2023/07/15 00:14:53;;;;;;;;;;;25.40;93.10;25.40;99053.00;;;;339934;28;95470;-93
2023/07/15 00:15:06;;;;;;;;;;;25.40;93.20;25.40;99054.00;;;;339481;28;83417;-93
2023/07/15 00:15:19;;;;;;;;;;;25.40;93.20;25.40;99049.00;;;;341156;28;95841;-93
2023/07/15 00:15:31;;;;;;;;;;;25.40;93.20;25.40;99063.00;;;;340632;28;82465;-92
2023/07/15 00:15:44;;;;;;;;;;;25.40;93.20;25.40;99056.00;;;;341278;28;95704;-92
2023/07/15 00:15:57;;;;;;;;;;;25.40;93.20;25.40;99064.00;;;;341633;27;83615;-93
2023/07/15 00:18:28;;;;;;;;;;;25.40;93.30;25.30;99050.00;;;;379531;22;82291;-88
2023/07/15 00:18:40;;;;;;;;;;;25.40;93.30;25.30;99041.00;;;;338521;28;94748;-92
2023/07/15 00:18:52;;;;;;;;;;;25.40;93.60;25.40;99040.00;;;;337268;28;83589;-92
2023/07/15 00:19:05;;;;;;;;;;;25.40;93.50;25.30;99042.00;;;;334500;29;96038;-92
2023/07/15 00:19:19;;;;;;;;;;;25.40;93.50;25.40;99041.00;;;;336478;28;82478;-92
2023/07/15 00:19:33;;;;;;;;;;;25.40;93.40;25.40;99031.00;;;;335754;28;97397;-92
2023/07/15 00:19:45;;;;;;;;;;;25.40;93.50;25.40;99036.00;;;;335290;29;83335;-93
2023/07/15 00:19:57;;;;;;;;;;;25.40;93.40;25.40;99032.00;;;;335836;28;96073;-93
2023/07/15 00:20:14;;;;;;;;;;;25.40;93.40;25.40;99027.00;;;;335185;29;83456;-93
2023/07/15 00:20:26;;;;;;;;;;;25.40;93.50;25.50;99033.00;;;;337122;28;96821;-92
2023/07/15 00:20:37;;;;;;;;;;;25.40;93.40;25.50;99039.00;;;;336646;28;83487;-93
2023/07/15 00:20:49;;;;;;;;;;;25.40;93.50;25.50;99031.00;;;;335746;28;94416;-93
2023/07/15 00:21:09;;;;;;;;;;;25.40;93.40;25.40;99037.00;;;;337865;28;83481;-93
2023/07/15 00:21:26;;;;;;;;;;;25.40;93.50;25.40;99040.00;;;;337191;28;94139;-92
2023/07/15 00:21:37;;;;;;;;;;;25.40;93.50;25.30;99032.00;;;;337851;28;82476;-92
2023/07/15 00:21:49;;;;;;;;;;;25.40;93.60;25.40;99030.00;;;;339813;28;96227;-93
2023/07/15 00:22:02;;;;;;;;;;;25.40;93.50;25.30;99032.00;;;;339192;28;83318;-93
2023/07/15 00:22:14;;;;;;;;;;;25.40;93.60;25.40;99038.00;;;;338453;28;96612;-92
2023/07/15 00:22:26;;;;;;;;;;;25.40;93.70;25.30;99037.00;;;;337843;28;83469;-92
2023/07/15 00:22:38;;;;;;;;;;;25.50;93.80;25.30;99039.00;;;;334637;29;93341;-92
2023/07/15 00:22:50;;;;;;;;;;;25.40;93.70;25.30;99048.00;;;;335318;29;83376;-92
2023/07/15 00:23:08;;;;;;;;;;;25.40;93.80;25.30;99038.00;;;;337178;28;96000;-92
2023/07/15 00:23:25;;;;;;;;;;;25.40;93.90;25.30;99047.00;;;;337889;28;82448;-93
2023/07/15 00:23:37;;;;;;;;;;;25.40;93.90;25.30;99033.00;;;;334638;29;95739;-93
2023/07/15 00:23:53;;;;;;;;;;;25.40;93.90;25.40;99032.00;;;;332787;29;83358;-93
2023/07/15 00:24:05;;;;;;;;;;;25.40;93.80;25.40;99032.00;;;;336990;28;97985;-93
2023/07/15 00:24:17;;;;;;;;;;;25.40;94.00;25.40;99030.00;;;;337920;28;82482;-94
2023/07/15 00:24:28;;;;;;;;;;;25.40;94.00;25.40;99033.00;;;;334550;29;96315;-92
2023/07/15 00:24:40;;;;;;;;;;;25.40;93.90;25.40;99030.00;;;;336552;28;83314;-92
2023/07/15 00:24:52;;;;;;;;;;;25.40;94.00;25.40;99032.00;;;;337176;28;95557;-92
2023/07/15 00:25:05;;;;;;;;;;;25.40;93.90;25.40;99031.00;;;;339208;28;83490;-93
2023/07/15 00:25:20;;;;;;;;;;;25.40;93.90;25.40;99037.00;;;;338539;28;95661;-93
2023/07/15 00:25:34;;;;;;;;;;;25.50;94.00;25.40;99040.00;;;;336565;28;82624;-93
2023/07/15 00:25:46;;;;;;;;;;;25.40;94.00;25.40;99038.00;;;;337208;28;96264;-93
2023/07/15 00:25:58;;;;;;;;;;;25.40;94.10;25.40;99025.00;;;;337825;28;83389;-92
2023/07/15 00:26:10;;;;;;;;;;;25.40;94.10;25.40;99032.00;;;;334399;29;98069;-93
2023/07/15 00:26:24;;;;;;;;;;;25.40;94.10;25.40;99035.00;;;;336580;28;83267;-92
2023/07/15 00:26:37;;;;;;;;;;;25.40;94.20;25.40;99034.00;;;;334462;29;96049;-93
2023/07/15 00:26:48;;;;;;;;;;;25.50;94.20;25.40;99037.00;;;;337847;28;83341;-92
2023/07/15 00:27:00;;;;;;;;;;;25.40;94.30;25.40;99043.00;;;;334486;29;96578;-93
2023/07/15 00:27:12;;;;;;;;;;;25.40;94.30;25.40;99028.00;;;;335202;29;83483;-93
2023/07/15 00:27:25;;;;;;;;;;;25.40;94.20;25.40;99034.00;;;;335792;28;95509;-92
2023/07/15 00:27:37;;;;;;;;;;;25.40;94.10;25.40;99026.00;;;;335231;29;82501;-93
2023/07/15 00:27:49;;;;;;;;;;;25.40;94.20;25.30;99030.00;;;;337146;28;97005;-92
2023/07/15 00:28:01;;;;;;;;;;;25.40;94.30;25.40;99036.00;;;;335286;29;82490;-93
2023/07/15 00:28:13;;;;;;;;;;;25.40;94.10;25.40;99032.00;;;;335811;28;97809;-93
2023/07/15 00:28:25;;;;;;;;;;;25.40;94.30;25.40;99031.00;;;;336677;28;82253;-92
2023/07/15 00:28:36;;;;;;;;;;;25.40;94.40;25.40;99026.00;;;;335732;28;95982;-93
2023/07/15 00:28:51;;;;;;;;;;;25.40;94.40;25.40;99028.00;;;;337897;28;83486;-93
2023/07/15 00:29:04;;;;;;;;;;;25.40;94.30;25.40;99028.00;;;;334585;29;95598;-93
2023/07/15 00:29:16;;;;;;;;;;;25.40;94.40;25.30;99025.00;;;;334087;29;82503;-93
2023/07/15 00:29:29;;;;;;;;;;;25.40;94.40;25.30;99026.00;;;;338476;28;95409;-93
2023/07/15 00:29:41;;;;;;;;;;;25.40;94.40;25.30;99027.00;;;;339334;28;82466;-93
2023/07/15 00:29:53;;;;;;;;;;;25.40;94.50;25.30;99029.00;;;;335989;28;95722;-94
2023/07/15 00:30:06;;;;;;;;;;;25.40;94.50;25.30;99035.00;;;;336585;28;83533;-93
2023/07/15 00:30:19;;;;;;;;;;;25.40;94.60;25.30;99026.00;;;;335798;28;97502;-92
2023/07/15 00:30:31;;;;;;;;;;;25.50;94.60;25.40;99029.00;;;;336604;28;82431;-93
2023/07/15 00:30:44;;;;;;;;;;;25.40;94.50;25.40;99029.00;;;;337102;28;92858;-92
2023/07/15 00:30:56;;;;;;;;;;;25.40;94.40;25.40;99029.00;;;;337768;28;82524;-93
2023/07/15 00:31:12;;;;;;;;;;;25.40;94.40;25.40;99023.00;;;;335834;28;96686;-93
2023/07/15 00:31:24;;;;;;;;;;;25.40;94.50;25.30;99023.00;;;;337725;28;83278;-92
2023/07/15 00:31:36;;;;;;;;;;;25.40;94.50;25.40;99020.00;;;;334510;29;95893;-92
2023/07/15 00:31:48;;;;;;;;;;;25.40;94.50;25.40;99021.00;;;;337933;28;83357;-92
2023/07/15 00:32:04;;;;;;;;;;;25.40;94.60;25.40;99017.00;;;;337151;28;95646;-93
2023/07/15 00:32:16;;;;;;;;;;;25.40;94.50;25.40;99018.00;;;;343398;28;84457;-93
2023/07/15 00:32:28;;;;;;;;;;;25.40;94.50;25.30;99017.00;;;;344000;28;96453;-93
2023/07/15 00:32:45;;;;;;;;;;;25.40;94.70;25.40;99028.00;;;;337855;28;83488;-93
2023/07/15 00:32:57;;;;;;;;;;;25.40;94.70;25.50;99024.00;;;;337096;28;96950;-93
2023/07/15 00:33:13;;;;;;;;;;;25.40;94.70;25.30;99020.00;;;;336611;28;82548;-93
2023/07/15 00:33:25;;;;;;;;;;;25.50;94.80;25.40;99020.00;;;;335760;28;95949;-93
2023/07/15 00:33:37;;;;;;;;;;;25.40;94.80;25.40;99019.00;;;;335271;29;83457;-92
2023/07/15 00:33:49;;;;;;;;;;;25.40;94.70;25.30;99013.00;;;;336982;28;95706;-92
2023/07/15 00:34:00;;;;;;;;;;;25.40;94.90;25.30;99010.00;;;;335273;29;82499;-92
2023/07/15 00:34:13;;;;;;;;;;;25.40;94.90;25.40;99020.00;;;;335765;28;95091;-93
2023/07/15 00:34:25;;;;;;;;;;;25.40;94.80;25.30;99019.00;;;;337879;28;83392;-93
2023/07/15 00:34:37;;;;;;;;;;;25.40;94.90;25.30;99013.00;;;;337098;28;96195;-93
2023/07/15 00:34:48;;;;;;;;;;;25.40;94.90;25.40;99015.00;;;;337803;28;83609;-92
2023/07/15 00:35:00;;;;;;;;;;;25.40;94.90;25.40;99010.00;;;;335822;28;95652;-93
2023/07/15 00:35:20;;;;;;;;;;;25.40;94.80;25.40;99012.00;;;;337968;28;82544;-93
2023/07/15 00:35:32;;;;;;;;;;;25.40;95.00;25.30;99026.00;;;;335951;28;96886;-92
2023/07/15 00:35:45;;;;;;;;;;;25.40;95.00;25.30;99016.00;;;;337966;28;82479;-93
2023/07/15 00:35:57;;;;;;;;;;;25.40;94.90;25.30;99013.00;;;;337210;28;97030;-92
2023/07/15 00:36:09;;;;;;;;;;;25.40;95.00;25.30;99002.00;;;;336489;28;82586;-93
2023/07/15 00:36:21;;;;;;;;;;;25.40;95.20;25.30;99009.00;;;;334582;29;97096;-92
2023/07/15 00:36:33;;;;;;;;;;;25.40;95.20;25.40;99012.00;;;;337997;28;82440;-93
2023/07/15 00:36:45;;;;;;;;;;;25.40;95.20;25.30;99009.00;;;;335845;28;97065;-92
2023/07/15 00:36:57;;;;;;;;;;;25.40;95.20;25.30;99024.00;;;;339307;28;82480;-92
2023/07/15 00:37:09;;;;;;;;;;;25.40;95.30;25.30;99016.00;;;;341383;28;96394;-92
2023/07/15 00:37:21;;;;;;;;;;;25.40;95.30;25.30;99018.00;;;;344812;28;82520;-93
2023/07/15 00:37:36;;;;;;;;;;;25.40;95.30;25.30;99017.00;;;;337223;28;95690;-93
2023/07/15 00:37:48;;;;;;;;;;;25.40;95.40;25.30;99022.00;;;;335536;29;82490;-93
2023/07/15 00:37:59;;;;;;;;;;;25.40;95.50;25.30;99013.00;;;;336958;28;95213;-93
2023/07/15 00:38:11;;;;;;;;;;;25.40;95.50;25.30;99012.00;;;;335202;29;83505;-92
2023/07/15 00:38:23;;;;;;;;;;;25.40;95.50;25.40;99016.00;;;;337196;28;92637;-92
2023/07/15 00:38:36;;;;;;;;;;;25.40;95.50;25.40;99012.00;;;;339223;28;82523;-92
2023/07/15 00:38:48;;;;;;;;;;;25.40;95.50;25.30;99010.00;;;;335719;28;96933;-93
2023/07/15 00:39:00;;;;;;;;;;;25.40;95.60;25.40;99008.00;;;;337972;28;82518;-93
2023/07/15 00:39:12;;;;;;;;;;;25.40;95.50;25.40;99004.00;;;;342660;28;95973;-93
2023/07/15 00:39:25;;;;;;;;;;;25.40;95.60;25.50;99006.00;;;;344810;28;83503;-93
2023/07/15 00:39:37;;;;;;;;;;;25.40;95.60;25.40;99008.00;;;;342666;28;96447;-93
2023/07/15 00:39:48;;;;;;;;;;;25.40;95.70;25.40;99017.00;;;;343448;28;83437;-93
2023/07/15 00:40:03;;;;;;;;;;;25.40;95.70;25.40;99014.00;;;;336872;28;96676;-93
2023/07/15 00:40:15;;;;;;;;;;;25.40;95.70;25.40;99007.00;;;;333989;29;83481;-92
2023/07/15 00:40:36;;;;;;;;;;;25.40;95.80;25.40;99005.00;;;;335830;28;96493;-93
2023/07/15 00:40:48;;;;;;;;;;;25.40;95.80;25.30;99010.00;;;;337819;28;82547;-93
2023/07/15 00:41:00;;;;;;;;;;;25.40;95.90;25.40;99005.00;;;;335758;28;96860;-93
2023/07/15 00:41:22;;;;;;;;;;;25.40;95.80;25.40;99006.00;;;;336435;28;83436;-93
2023/07/15 00:41:34;;;;;;;;;;;25.40;95.80;25.40;99006.00;;;;337056;28;97209;-93
2023/07/15 00:41:46;;;;;;;;;;;25.40;95.80;25.40;99004.00;;;;334055;29;82496;-93
2023/07/15 00:42:03;;;;;;;;;;;25.40;95.80;25.30;99001.00;;;;334517;29;97026;-93
2023/07/15 00:42:37;;;;;;;;;;;25.40;96.00;25.30;99006.00;;;;336509;28;82543;-93
2023/07/15 00:42:50;;;;;;;;;;;25.40;96.00;25.30;99007.00;;;;334504;29;96471;-93
2023/07/15 00:43:39;;;;;;;;;;;25.40;96.20;25.30;99007.00;;;;336544;28;83378;-93
2023/07/15 00:43:51;;;;;;;;;;;25.40;95.90;25.20;99011.00;;;;335811;28;96682;-93
2023/07/15 00:44:05;;;;;;;;;;;25.40;96.30;25.20;99010.00;;;;337787;28;83896;-93
2023/07/15 00:44:17;;;;;;;;;;;25.40;96.20;25.20;99010.00;;;;338367;28;98020;-92
2023/07/15 00:44:28;;;;;;;;;;;25.40;96.20;25.20;98997.00;;;;339239;28;82511;-94
2023/07/15 00:44:40;;;;;;;;;;;25.30;96.40;25.20;99009.00;;;;336971;28;95271;-92
2023/07/15 00:44:52;;;;;;;;;;;25.30;96.40;25.20;99010.00;;;;336559;28;83440;-93
2023/07/15 00:45:03;;;;;;;;;;;25.30;96.40;25.30;99009.00;;;;337133;28;96220;-93
2023/07/15 00:45:15;;;;;;;;;;;25.30;96.30;25.20;99008.00;;;;335300;29;83361;-93
2023/07/15 00:45:27;;;;;;;;;;;25.30;96.30;25.30;99012.00;;;;335767;28;95018;-93
2023/07/15 00:45:38;;;;;;;;;;;25.30;96.30;25.30;99016.00;;;;336571;28;83398;-93
2023/07/15 00:46:11;;;;;;;;;;;25.40;96.50;25.20;99011.00;;;;334500;29;96266;-93
2023/07/15 00:46:31;;;;;;;;;;;25.30;96.40;25.20;99021.00;;;;335158;29;82974;-92
2023/07/15 00:47:12;;;;;;;;;;;25.30;96.90;25.20;99015.00;;;;334452;29;94813;-92
2023/07/15 00:47:39;;;;;;;;;;;25.30;96.80;25.20;99024.00;;;;335174;29;83559;-93
2023/07/15 00:48:11;;;;;;;;;;;25.30;97.00;25.30;99023.00;;;;334503;29;95381;-93
2023/07/15 00:48:23;;;;;;;;;;;25.30;97.00;25.30;99019.00;;;;333841;28;83469;-93
2023/07/15 00:48:35;;;;;;;;;;;25.30;97.10;25.30;99023.00;;;;334521;29;95123;-92
2023/07/15 00:49:21;;;;;;;;;;;25.30;97.10;25.30;99029.00;;;;337763;28;83525;-93
2023/07/15 00:49:34;;;;;;;;;;;25.30;97.00;25.30;99021.00;;;;339748;28;96185;-92
2023/07/15 00:49:46;;;;;;;;;;;25.30;97.30;25.30;99021.00;;;;340697;28;83478;-93
2023/07/15 00:49:57;;;;;;;;;;;25.30;97.30;25.20;99027.00;;;;341167;28;96780;-92
2023/07/15 00:50:09;;;;;;;;;;;25.30;97.40;25.20;99019.00;;;;339291;28;82476;-93
2023/07/15 00:50:21;;;;;;;;;;;25.30;97.40;25.30;99027.00;;;;339762;28;97890;-92
2023/07/15 00:50:33;;;;;;;;;;;25.30;97.50;25.30;99023.00;;;;343320;28;82504;-93
2023/07/15 00:50:44;;;;;;;;;;;25.30;97.40;25.30;99021.00;;;;342565;28;96548;-93
2023/07/15 00:50:56;;;;;;;;;;;25.30;97.50;25.30;99019.00;;;;343337;28;83355;-92
2023/07/15 00:51:08;;;;;;;;;;;25.30;97.60;25.30;99021.00;;;;339953;28;96522;-93
2023/07/15 00:51:21;;;;;;;;;;;25.30;97.40;25.20;99029.00;;;;339298;28;83393;-93
2023/07/15 00:51:35;;;;;;;;;;;25.30;97.40;25.30;99032.00;;;;341199;28;96786;-93
2023/07/15 00:52:00;;;;;;;;;;;25.30;97.40;25.20;99039.00;;;;343429;28;83443;-93
2023/07/15 00:52:14;;;;;;;;;;;25.30;97.40;25.20;99025.00;;;;338966;28;96437;-92
2023/07/15 00:52:25;;;;;;;;;;;25.30;97.60;25.20;99040.00;;;;340582;28;82671;-92
2023/07/15 00:52:38;;;;;;;;;;;25.30;97.70;25.20;99031.00;;;;341175;28;96385;-93
2023/07/15 00:52:50;;;;;;;;;;;25.30;97.70;25.20;99035.00;;;;339840;28;82740;-92
2023/07/15 00:53:02;;;;;;;;;;;25.30;97.80;25.10;99026.00;;;;337341;28;96576;-93
2023/07/15 00:53:13;;;;;;;;;;;25.30;97.90;25.20;99034.00;;;;340701;28;83328;-93
2023/07/15 00:53:25;;;;;;;;;;;25.30;97.80;25.20;99033.00;;;;338509;28;96578;-92
2023/07/15 00:53:37;;;;;;;;;;;25.30;97.90;25.20;99032.00;;;;340558;28;83547;-93
2023/07/15 00:53:49;;;;;;;;;;;25.30;97.90;25.20;99027.00;;;;339937;28;96381;-93
2023/07/15 00:54:03;;;;;;;;;;;25.30;97.90;25.20;99034.00;;;;339306;28;83360;-92
2023/07/15 00:54:15;;;;;;;;;;;25.30;98.00;25.20;99037.00;;;;337140;28;95523;-93
2023/07/15 00:54:28;;;;;;;;;;;25.30;97.90;25.10;99030.00;;;;342166;28;83346;-92
2023/07/15 00:54:41;;;;;;;;;;;25.30;98.00;25.10;99032.00;;;;339694;28;97462;-92
2023/07/15 00:54:54;;;;;;;;;;;25.30;98.10;25.20;99032.00;;;;337955;28;83472;-92
2023/07/15 00:55:06;;;;;;;;;;;25.20;97.90;25.20;99034.00;;;;337233;28;96774;-93
2023/07/15 00:55:18;;;;;;;;;;;25.30;98.00;25.20;99035.00;;;;340580;28;83484;-92
2023/07/15 00:55:30;;;;;;;;;;;25.30;98.10;25.20;99029.00;;;;338591;28;97193;-93
2023/07/15 00:55:42;;;;;;;;;;;25.20;98.00;25.20;99042.00;;;;337856;28;83581;-93
2023/07/15 00:55:54;;;;;;;;;;;25.20;98.10;25.20;99025.00;;;;338505;28;94511;-93
2023/07/15 00:56:06;;;;;;;;;;;25.30;98.20;25.10;99026.00;;;;335421;29;83527;-92
2023/07/15 00:56:18;;;;;;;;;;;25.20;98.30;25.10;99020.00;;;;337380;28;96003;-92
2023/07/15 00:56:31;;;;;;;;;;;25.20;98.30;25.20;99029.00;;;;339463;28;83668;-92
2023/07/15 00:56:44;;;;;;;;;;;25.20;98.20;25.20;99026.00;;;;335817;28;97150;-93
2023/07/15 00:56:56;;;;;;;;;;;25.20;98.20;25.20;99027.00;;;;339429;28;82543;-92
2023/07/15 00:57:09;;;;;;;;;;;25.20;98.20;25.20;99034.00;;;;340168;28;96928;-93
2023/07/15 00:57:21;;;;;;;;;;;25.20;98.20;25.20;99024.00;;;;338069;28;82510;-92
2023/07/15 00:57:33;;;;;;;;;;;25.20;98.10;25.30;99029.00;;;;338702;28;95314;-93
2023/07/15 00:57:45;;;;;;;;;;;25.20;98.00;25.20;99023.00;;;;340802;28;83583;-92
2023/07/15 00:57:57;;;;;;;;;;;25.30;98.20;25.10;99036.00;;;;338782;28;95228;-92
2023/07/15 00:58:09;;;;;;;;;;;25.20;98.30;25.20;99029.00;;;;340706;28;83522;-92
2023/07/15 00:58:21;;;;;;;;;;;25.20;98.40;25.10;99030.00;;;;341389;28;96218;-93
2023/07/15 00:58:33;;;;;;;;;;;25.20;98.30;25.10;99037.00;;;;339370;28;83476;-93
2023/07/15 00:58:44;;;;;;;;;;;25.20;98.40;25.10;99030.00;;;;341265;28;97006;-92
2023/07/15 00:58:56;;;;;;;;;;;25.20;98.50;25.10;99028.00;;;;339501;28;82454;-93
2023/07/15 00:59:09;;;;;;;;;;;25.20;98.40;25.10;99031.00;;;;334923;29;95298;-93
2023/07/15 00:59:21;;;;;;;;;;;25.20;98.50;25.10;99033.00;;;;339461;28;82560;-92
2023/07/15 00:59:33;;;;;;;;;;;25.20;98.50;25.10;99029.00;;;;339981;28;96800;-92
2023/07/15 00:59:45;;;;;;;;;;;25.20;98.50;25.10;99022.00;;;;339459;28;83465;-93
2023/07/15 00:59:58;;;;;;;;;;;25.20;98.60;25.10;99029.00;;;;338734;28;95797;-92
2023/07/15 01:00:12;;;;;;;;;;;25.20;98.60;25.20;99021.00;;;;338131;28;82603;-92
2023/07/15 01:00:24;;;;;;;;;;;25.20;98.50;25.20;99025.00;;;;337383;28;96352;-93
2023/07/15 01:00:35;;;;;;;;;;;25.20;98.40;25.20;99036.00;;;;340663;28;82579;-92
2023/07/15 01:00:47;;;;;;;;;;;25.20;98.60;25.10;99028.00;;;;338381;28;97618;-92
2023/07/15 01:00:59;;;;;;;;;;;25.20;98.70;25.10;99028.00;;;;342178;28;82307;-92
2023/07/15 01:01:11;;;;;;;;;;;25.20;98.80;25.10;99023.00;;;;339929;28;96321;-93
2023/07/15 01:01:23;;;;;;;;;;;25.20;98.90;25.20;99026.00;;;;338073;28;83404;-93
2023/07/15 01:01:35;;;;;;;;;;;25.20;98.70;25.20;99026.00;;;;339862;28;96811;-92
2023/07/15 01:01:49;;;;;;;;;;;25.20;98.80;25.20;99024.00;;;;338154;28;82317;-93
2023/07/15 01:02:01;;;;;;;;;;;25.20;98.70;25.20;99024.00;;;;337244;28;96263;-92
2023/07/15 01:02:13;;;;;;;;;;;25.20;98.70;25.10;99025.00;;;;340684;28;83372;-92
2023/07/15 01:02:25;;;;;;;;;;;25.20;98.80;25.10;99026.00;;;;337355;28;96125;-93
2023/07/15 01:02:37;;;;;;;;;;;25.20;98.80;25.20;99031.00;;;;339333;28;82771;-93
2023/07/15 01:02:49;;;;;;;;;;;25.20;98.80;25.10;99020.00;;;;338534;28;97970;-93
2023/07/15 01:03:03;;;;;;;;;;;25.20;98.90;25.10;99033.00;;;;339525;28;83585;-93
2023/07/15 01:03:15;;;;;;;;;;;25.20;99.00;25.10;99030.00;;;;337307;28;95237;-93
2023/07/15 01:03:27;;;;;;;;;;;25.20;99.00;25.10;99026.00;;;;336676;28;82528;-93
2023/07/15 01:03:43;;;;;;;;;;;25.20;99.00;25.10;99022.00;;;;339813;28;96311;-93
2023/07/15 01:03:56;;;;;;;;;;;25.20;99.00;25.10;99025.00;;;;338012;28;83464;-93
2023/07/15 01:04:08;;;;;;;;;;;25.20;99.00;25.20;99031.00;;;;337202;28;96674;-93
2023/07/15 01:04:20;;;;;;;;;;;25.20;98.90;25.10;99029.00;;;;340713;28;83578;-93
2023/07/15 01:04:32;;;;;;;;;;;25.20;99.00;25.10;99024.00;;;;337267;28;95918;-93
2023/07/15 01:04:45;;;;;;;;;;;25.20;99.20;25.00;99034.00;;;;342080;28;83507;-92
2023/07/15 01:04:57;;;;;;;;;;;25.20;99.20;25.10;99029.00;;;;338593;28;97368;-92
2023/07/15 01:05:10;;;;;;;;;;;25.20;99.20;25.10;99033.00;;;;338188;28;83383;-93
2023/07/15 01:05:22;;;;;;;;;;;25.20;99.10;25.10;99037.00;;;;340068;28;95277;-93
2023/07/15 01:05:34;;;;;;;;;;;25.20;99.40;25.10;99036.00;;;;340671;28;83382;-93
2023/07/15 01:05:45;;;;;;;;;;;25.20;99.30;25.10;99033.00;;;;341373;28;96452;-92
2023/07/15 01:05:57;;;;;;;;;;;25.20;99.30;25.00;99027.00;;;;340807;28;83373;-92
2023/07/15 01:06:09;;;;;;;;;;;25.20;99.40;25.00;99035.00;;;;338621;28;96766;-92
2023/07/15 01:06:21;;;;;;;;;;;25.20;99.50;25.00;99044.00;;;;339452;28;83172;-93
2023/07/15 01:06:35;;;;;;;;;;;25.10;99.40;25.00;99032.00;;;;341345;28;96570;-93
2023/07/15 01:06:47;;;;;;;;;;;25.20;99.50;25.00;99040.00;;;;339283;28;82626;-92
2023/07/15 01:06:59;;;;;;;;;;;25.10;99.50;25.00;99041.00;;;;338669;28;95277;-92
2023/07/15 01:07:11;;;;;;;;;;;25.10;99.40;25.00;99037.00;;;;342099;28;83411;-92
2023/07/15 01:07:23;;;;;;;;;;;25.10;99.40;25.00;99032.00;;;;337182;28;97117;-93
2023/07/15 01:07:35;;;;;;;;;;;25.10;99.40;25.00;99031.00;;;;339321;28;83330;-93
2023/07/15 01:07:47;;;;;;;;;;;25.10;99.40;25.00;99044.00;;;;337205;28;95588;-93
2023/07/15 01:07:59;;;;;;;;;;;25.10;99.30;25.10;99033.00;;;;339334;28;83348;-93
2023/07/15 01:08:10;;;;;;;;;;;25.10;99.40;25.10;99036.00;;;;341199;28;95762;-92
2023/07/15 01:08:22;;;;;;;;;;;25.20;99.40;25.10;99032.00;;;;335339;29;82504;-93
2023/07/15 01:08:34;;;;;;;;;;;25.10;99.40;25.10;99039.00;;;;335906;28;96732;-93